Latest Weather Observations for Emerald

IDQ60801

Issued at 3:35 pm EST Saturday 19 April 2014 (issued every 30 minutes, with the page automatically refreshed every 10 minutes)

About weather observations | Map of weather stations | Latest weather observations for QLD | Other Formats
Station Details ID: 035264 Name: EMERALD AIRPORT Lat: -23.57 Lon: 148.18 Height: 189.4 m
Data from the previous 72 hours. | See also: Recent months at Emerald
Date/Time
EST
Temp
°C
App
Temp
°C
Dew
Point
Rel
Hum
%
Delta-T
°C
Wind Press
QNH
hPa
Press
MSL
hPa
Rain
since 9 am
mm
Dir
 
Spd
km/h
Gust
km/h
Spd
kts
Gust
kts
19/03:30pm 29.1 26.3 8.7 28 11.3 ESE 13 22 7 12 1014.0 - 0.0
19/03:00pm 29.4 27.9 9.0 28 11.4 SE 7 17 4 9 1014.4 1013.5 0.0
19/02:30pm 28.9 26.6 9.1 29 11.1 SSE 11 17 6 9 1014.5 - 0.0
19/02:00pm 28.9 26.6 9.1 29 11.1 ESE 11 17 6 9 1014.7 - 0.0
19/01:30pm 28.6 26.2 8.8 29 11.0 SSE 11 17 6 9 1015.2 - 0.0
19/01:00pm 28.6 27.3 9.3 30 10.8 S 6 13 3 7 1015.7 - 0.0
19/12:30pm 28.0 26.0 8.8 30 10.6 ESE 9 15 5 8 1016.1 - 0.0
19/12:00pm 27.6 25.3 9.0 31 10.3 NNE 11 20 6 11 1016.6 1015.8 0.0
19/11:30am 27.6 26.5 10.8 35 9.6 ESE 7 15 4 8 1017.3 - 0.0
19/11:00am 26.7 24.5 9.5 34 9.6 E 11 19 6 10 1017.7 - 0.0
19/10:30am 26.2 24.9 11.2 39 8.6 E 9 15 5 8 1018.2 - 0.0
19/10:00am 25.2 23.8 11.0 41 8.0 ESE 9 17 5 9 1018.5 - 0.0
19/09:30am 24.2 21.9 9.0 38 8.3 SE 11 15 6 8 1018.7 - 0.0
19/09:00am 23.3 20.5 8.6 39 7.9 SSE 13 17 7 9 1018.8 1018.0 0.0
19/08:30am 22.3 19.4 8.1 40 7.5 SE 13 17 7 9 1018.8 - 0.0
19/08:00am 20.7 17.5 8.4 45 6.5 SE 15 17 8 9 1018.7 - 0.0
19/07:30am 18.9 16.2 8.8 52 5.3 SSE 13 15 7 8 1018.5 - 0.0
19/07:00am 17.0 14.2 8.4 57 4.4 SSE 13 17 7 9 1018.4 - 0.0
19/06:30am 16.1 13.7 8.6 61 3.9 SSE 11 13 6 7 1018.1 - 0.0
19/06:00am 16.4 13.6 8.6 60 4.0 SSE 13 15 7 8 1017.9 1017.1 0.0
19/05:30am 16.3 14.0 9.0 62 3.8 S 11 15 6 8 1017.6 - 0.0
19/05:00am 16.1 14.3 9.5 65 3.5 SSE 9 11 5 6 1017.4 - 0.0
19/04:30am 16.5 14.7 9.4 63 3.7 S 9 11 5 6 1017.3 - 0.0
19/04:00am 16.6 14.5 9.8 64 3.6 S 11 13 6 7 1017.2 - 0.0
19/03:30am 16.7 15.0 9.9 64 3.6 SSE 9 11 5 6 1017.1 - 0.0
19/03:00am 17.0 14.9 9.7 62 3.9 SSE 11 13 6 7 1017.2 1016.4 0.0
19/02:30am 17.6 14.7 9.8 60 4.2 SSE 15 19 8 10 1017.1 - 0.0
19/02:00am 17.8 14.6 9.9 60 4.2 SSE 17 20 9 11 1017.2 - 0.0
19/01:30am 17.9 15.5 10.0 60 4.2 SSE 13 17 7 9 1017.2 - 0.0
19/01:00am 18.1 15.2 9.7 58 4.5 SSE 15 17 8 9 1017.2 - 0.0
19/12:30am 18.1 16.1 10.2 60 4.2 SSE 11 17 6 9 1017.4 - 0.0
19/12:00am 18.2 16.1 11.0 63 3.9 S 13 17 7 9 1017.3 1016.5 0.0
 
Date/Time
EST
Temp
°C
App
Temp
°C
Dew
Point
Rel
Hum
%
Delta-T
°C
Wind Press
QNH
hPa
Press
MSL
hPa
Rain
since 9 am
mm
Dir
 
Spd
km/h
Gust
km/h
Spd
kts
Gust
kts
18/11:30pm 19.5 18.8 11.3 59 4.5 ESE 6 7 3 4 1017.2 - 0.0
18/11:00pm 19.5 18.5 11.0 58 4.7 ESE 7 7 4 4 1016.9 - 0.0
18/10:30pm 19.1 17.0 11.2 60 4.4 ESE 13 15 7 8 1016.8 - 0.0
18/10:00pm 19.8 18.0 10.8 56 4.9 E 11 13 6 7 1016.8 - 0.0
18/09:30pm 19.9 18.9 11.1 57 4.9 E 7 11 4 6 1016.7 - 0.0
18/09:00pm 20.2 18.6 11.4 57 4.9 ESE 11 13 6 7 1016.6 1015.8 0.0
18/08:30pm 20.6 19.5 11.8 57 4.9 E 9 11 5 6 1016.4 - 0.0
18/08:00pm 21.0 19.9 11.9 56 5.1 E 9 11 5 6 1016.2 - 0.0
18/07:30pm 21.4 19.8 11.4 53 5.6 E 11 13 6 7 1016.0 - 0.0
18/07:00pm 22.9 20.3 10.7 46 6.8 E 15 19 8 10 1015.7 - 0.0
18/06:30pm 24.1 22.3 10.7 43 7.5 ESE 11 13 6 7 1015.4 - 0.0
18/06:00pm 25.1 23.2 10.6 40 8.1 ESE 11 13 6 7 1015.0 1014.1 0.0
18/05:30pm 27.4 24.9 9.7 33 9.9 ESE 13 15 7 8 1014.7 - 0.0
18/05:00pm 29.0 26.9 9.7 30 10.9 SSE 11 15 6 8 1014.5 - 0.0
18/04:30pm 29.3 27.2 9.9 30 11.0 SSE 11 19 6 10 1014.3 - 0.0
18/04:00pm 29.7 27.7 10.3 30 11.1 SSW 11 17 6 9 1014.0 - 0.0
18/03:30pm 29.5 25.8 9.6 29 11.2 SSE 19 26 10 14 1013.8 - 0.0
18/03:00pm 29.8 28.3 11.8 33 10.5 S 11 19 6 10 1014.0 1013.1 0.0
18/02:30pm 29.5 28.6 11.5 33 10.5 ENE 7 11 4 6 1014.3 - 0.0
18/02:00pm 28.9 27.7 11.5 34 10.1 SSE 9 13 5 7 1014.6 - 0.0
18/01:30pm 28.9 28.0 13.6 39 9.2 S 11 17 6 9 1015.0 - 0.0
18/01:00pm 28.5 27.9 13.6 40 8.9 W 9 19 5 10 1015.3 - 0.0
18/12:30pm 28.2 27.5 14.4 42 8.4 S 11 15 6 8 1015.7 - 0.0
18/12:00pm 27.8 27.6 13.7 42 8.4 NE 7 17 4 9 1016.2 1015.4 0.0
18/11:30am 27.1 26.0 13.1 42 8.3 ENE 11 17 6 9 1016.7 - 0.0
18/11:00am 26.7 25.5 14.1 46 7.6 SE 13 19 7 10 1017.2 - 0.0
18/10:30am 25.9 25.0 13.7 47 7.2 SE 11 19 6 10 1017.7 - 0.0
18/10:00am 25.2 24.3 13.7 49 6.8 ESE 11 17 6 9 1018.1 - 0.0
18/09:30am 24.5 22.1 12.5 47 6.9 SSE 17 20 9 11 1018.3 - 0.0
18/09:00am 23.5 21.0 11.2 46 6.9 SSE 15 20 8 11 1018.5 1017.7 0.0
18/08:30am 22.6 20.2 11.4 49 6.3 SE 15 20 8 11 1018.4 - 0.0
18/08:00am 21.4 18.6 11.4 53 5.6 SE 17 22 9 12 1018.2 - 0.0
18/07:30am 20.0 17.8 12.0 60 4.5 SSE 15 19 8 10 1018.0 - 0.0
18/07:00am 18.5 16.6 12.9 70 3.2 SSE 15 20 8 11 1017.8 - 0.0
18/06:30am 17.9 16.9 13.4 75 2.6 SSE 11 13 6 7 1017.5 - 0.0
18/06:00am 18.1 16.1 14.0 77 2.4 SSE 17 22 9 12 1017.3 1016.5 0.0
18/05:30am 18.1 17.1 14.6 80 2.0 S 13 15 7 8 1017.2 - 0.0
18/05:00am 18.6 18.1 15.8 84 1.7 S 13 17 7 9 1016.9 - 0.0
18/04:30am 19.3 19.7 17.3 88 1.2 SE 11 15 6 8 1016.8 - 0.0
18/04:00am 19.9 20.3 18.2 90 1.1 SE 13 17 7 9 1016.8 - 0.0
18/03:30am 20.1 21.5 18.6 91 0.9 SE 9 13 5 7 1016.8 - 0.0
18/03:00am 19.6 20.5 18.4 93 0.7 SE 11 15 6 8 1016.9 1016.1 0.0
18/02:30am 19.7 21.1 18.7 94 0.6 ESE 9 9 5 5 1016.8 - 0.0
18/02:00am 20.0 21.0 18.7 92 0.8 SSE 11 13 6 7 1016.9 - 0.0
18/01:30am 20.5 21.2 18.8 90 1.1 SE 13 17 7 9 1017.0 - 0.0
18/01:00am 20.2 20.8 17.8 86 1.5 SSE 11 15 6 8 1017.2 - 0.0
18/12:30am 20.8 21.6 18.2 85 1.6 ESE 11 13 6 7 1017.2 - 0.0
18/12:00am 20.7 21.2 17.5 82 2.0 SE 11 13 6 7 1017.2 1016.4 0.0
 
Date/Time
EST
Temp
°C
App
Temp
°C
Dew
Point
Rel
Hum
%
Delta-T
°C
Wind Press
QNH
hPa
Press
MSL
hPa
Rain
since 9 am
mm
Dir
 
Spd
km/h
Gust
km/h
Spd
kts
Gust
kts
17/11:30pm 21.8 22.7 16.7 73 3.1 ENE 7 9 4 5 1017.2 - 0.0
17/11:00pm 22.5 23.6 17.0 71 3.4 NNE 7 9 4 5 1017.3 - 0.0
17/10:30pm 22.0 23.1 17.2 74 3.0 NE 7 9 4 5 1017.3 - 0.0
17/10:00pm 22.2 23.3 16.5 70 3.5 E 6 7 3 4 1016.9 - 0.0
17/09:30pm 22.3 23.1 16.3 69 3.7 E 7 9 4 5 1016.7 - 0.0
17/09:00pm 22.8 22.3 15.9 65 4.2 ESE 13 17 7 9 1016.5 1015.7 0.0
17/08:30pm 23.4 23.7 16.0 63 4.5 E 9 9 5 5 1016.2 - 0.0
17/08:00pm 24.1 24.0 16.1 61 4.9 E 11 13 6 7 1016.0 - 0.0
17/07:30pm 24.7 24.5 15.6 57 5.5 ESE 11 13 6 7 1015.8 - 0.0
17/07:00pm 25.2 24.5 15.5 55 5.9 E 13 15 7 8 1015.4 - 0.0
17/06:30pm 25.1 24.8 15.4 55 5.9 E 11 13 6 7 1015.0 - 0.0
17/06:00pm 26.8 26.4 15.2 49 7.1 E 11 13 6 7 1014.6 1013.7 0.0
17/05:30pm 28.2 27.5 14.4 42 8.4 ESE 11 15 6 8 1014.4 - 0.0
17/05:00pm 29.4 29.3 14.0 39 9.3 NW 7 9 4 5 1014.2 - 0.0
17/04:30pm 29.6 29.2 12.9 35 9.9 WNW 7 11 4 6 1014.0 - 0.0
17/04:00pm 29.6 28.8 12.9 35 9.9 WNW 9 13 5 7 1013.9 - 0.0
17/03:30pm 30.9 30.3 12.3 32 11.0 WNW 7 13 4 7 1013.9 - 0.0
17/03:00pm 30.9 30.7 13.7 35 10.4 NW 7 15 4 8 1013.9 1013.0 0.0
17/02:30pm 29.9 29.1 12.8 35 10.2 N 9 19 5 10 1014.2 - 0.0
17/02:00pm 28.9 28.2 14.3 40 8.9 N 11 17 6 9 1014.5 - 0.0
17/01:30pm 29.7 29.4 14.3 39 9.4 NNW 9 20 5 11 1015.0 - 0.0
17/01:00pm 29.1 28.0 15.2 42 8.6 NNW 15 20 8 11 1015.5 - 0.0
17/12:30pm 29.3 30.0 16.1 44 8.2 WNW 7 13 4 7 1016.1 - 0.0
17/12:00pm 28.0 28.4 16.3 49 7.3 NNE 9 17 5 9 1016.7 1015.9 0.0
17/11:30am 28.1 28.9 17.3 52 6.8 N 9 15 5 8 1017.3 - 0.0
17/11:00am 27.9 29.4 17.7 53 6.5 E 6 13 3 7 1017.8 - 0.0
17/10:30am 26.9 28.0 17.9 57 5.7 N 9 13 5 7 1018.2 - 0.0
17/10:00am 25.8 27.1 18.5 64 4.7 NNE 9 13 5 7 1018.4 - 0.0
17/09:30am 24.5 26.6 19.3 73 3.4 N 7 13 4 7 1018.5 - 0.0
17/09:00am 23.8 25.2 19.5 77 2.8 N 11 15 6 8 1018.4 1017.6 0.0
17/08:30am 23.3 25.3 19.9 81 2.2 NNE 9 13 5 7 1018.2 - 0.0
17/08:00am 21.8 25.7 20.3 91 1.0 CALM 0 6 0 3 1018.2 - 0.0
17/07:30am 20.6 23.2 20.1 97 0.3 ESE 6 9 3 5 1017.9 - 0.0
17/07:00am 20.5 22.9 20.0 97 0.3 SE 7 9 4 5 1017.7 - 0.0
17/06:30am 20.4 22.7 19.9 97 0.3 E 7 9 4 5 1017.2 - 0.0
17/06:00am 20.3 22.8 19.8 97 0.3 E 6 7 3 4 1016.9 1016.1 0.0
17/05:30am 20.1 21.5 19.6 97 0.3 E 11 13 6 7 1016.7 - 0.0
17/05:00am 19.7 21.3 19.2 97 0.3 NE 9 13 5 7 1016.5 - 0.0
17/04:30am 19.3 20.4 18.8 97 0.3 E 11 13 6 7 1016.3 - 0.0
17/04:00am 19.4 20.9 18.9 97 0.3 E 9 11 5 6 1016.2 - 0.0
17/03:30am 19.4 20.9 18.9 97 0.3 E 9 11 5 6 1016.0 - 0.0
17/03:00am 19.8 21.3 18.8 94 0.6 NE 9 13 5 7 1015.7 1014.8 0.0
17/02:30am 19.7 20.7 18.7 94 0.6 ENE 11 13 6 7 1015.8 - 0.0
17/02:00am 19.8 20.8 18.6 93 0.8 ESE 11 15 6 8 1015.9 - 0.0
17/01:30am 20.2 20.8 18.7 91 0.9 ESE 13 15 7 8 1016.0 - 0.0
17/01:00am 20.7 20.5 18.6 88 1.3 SE 17 19 9 10 1016.1 - 0.0
17/12:30am 20.5 20.7 17.7 84 1.7 ESE 13 15 7 8 1016.2 - 0.0
17/12:00am 21.5 21.1 17.1 76 2.7 SE 15 19 8 10 1016.2 1015.4 0.0
 
Date/Time
EST
Temp
°C
App
Temp
°C
Dew
Point
Rel
Hum
%
Delta-T
°C
Wind Press
QNH
hPa
Press
MSL
hPa
Rain
since 9 am
mm
Dir
 
Spd
km/h
Gust
km/h
Spd
kts
Gust
kts
16/11:30pm 21.7 21.7 17.1 75 2.8 ESE 13 19 7 10 1015.9 - 0.0
16/11:00pm 21.5 20.2 16.7 74 2.9 SSE 19 20 10 11 1015.9 - 0.0
16/10:30pm 21.9 24.1 16.6 72 3.2 CALM 0 0 0 0 1015.3 - 0.0
16/10:00pm 21.5 22.4 16.2 72 3.2 NNE 6 7 3 4 1015.3 - 0.0
16/09:30pm 21.9 22.6 16.0 69 3.6 E 7 9 4 5 1015.1 - 0.0
16/09:00pm 22.6 22.6 16.2 67 3.9 E 11 13 6 7 1015.1 1014.2 0.0
16/08:30pm 22.9 23.2 16.0 65 4.2 E 9 9 5 5 1014.9 - 0.0
16/08:00pm 22.8 23.1 15.9 65 4.2 E 9 11 5 6 1014.6 - 0.0
16/07:30pm 23.9 24.0 15.4 59 5.1 E 9 11 5 6 1014.1 - 0.0
16/07:00pm 24.7 25.1 15.3 56 5.7 E 7 9 4 5 1013.6 - 0.0
16/06:30pm 26.4 26.5 14.5 48 7.2 ENE 7 9 4 5 1013.3 - 0.0
16/06:00pm 27.5 27.4 13.4 41 8.4 E 6 7 3 4 1013.0 1012.2 0.0
16/05:30pm 29.7 29.3 13.0 35 10.0 SW 7 9 4 5 1012.8 - 0.0
16/05:00pm 30.4 29.0 12.3 33 10.7 SW 11 13 6 7 1012.7 - 0.0
16/04:30pm 30.5 31.3 13.7 35 10.2 E 2 9 1 5 1012.6 - 0.0
16/04:00pm 29.5 29.3 13.7 38 9.5 SE 7 9 4 5 1012.6 - 0.0

Other Formats:

Comma delimited format used in spreadsheet applications
http://www.bom.gov.au/fwo/IDQ60801/IDQ60801.94363.axf

JavaScript Object Notation format (JSON) in row-major order
http://www.bom.gov.au/fwo/IDQ60801/IDQ60801.94363.json